createdAt,value
2018-12-31T08:50:42.372Z,4.50
2018-12-31T08:53:10.651Z,3.20
2018-12-31T08:55:38.995Z,2.47
2018-12-31T08:58:07.297Z,7.83
2018-12-31T09:00:35.669Z,3.93
2018-12-31T09:03:03.938Z,5.10
2018-12-31T09:05:32.251Z,4.70
2018-12-31T09:08:00.596Z,6.67
2018-12-31T09:10:28.919Z,4.47
2018-12-31T09:12:57.307Z,6.03
2018-12-31T09:15:25.579Z,3.00
2018-12-31T09:17:53.845Z,6.87
2018-12-31T09:20:22.903Z,6.47
2018-12-31T09:22:51.171Z,2.87
2018-12-31T09:25:19.481Z,4.40
2018-12-31T09:27:47.823Z,3.67
2018-12-31T09:30:16.106Z,3.87
2018-12-31T09:32:44.389Z,8.10
2018-12-31T09:35:34.038Z,6.00
2018-12-31T09:38:02.371Z,8.70
2018-12-31T09:40:30.662Z,7.20
2018-12-31T09:45:46.482Z,7.50
2018-12-31T09:48:17.736Z,6.67
2018-12-31T09:50:46.079Z,4.03
2018-12-31T09:53:23.022Z,3.40
2018-12-31T09:55:51.877Z,3.70
2018-12-31T09:58:20.282Z,3.90
2018-12-31T10:00:48.991Z,5.40
2018-12-31T10:03:17.729Z,4.93
2018-12-31T10:05:50.771Z,6.10
2018-12-31T10:08:19.452Z,3.30
2018-12-31T10:10:56.417Z,3.10
2018-12-31T10:13:32.370Z,5.23
2018-12-31T10:16:06.680Z,3.90
2018-12-31T10:18:45.165Z,4.43
2018-12-31T10:21:13.450Z,4.30
2018-12-31T10:23:41.775Z,4.37
2018-12-31T10:26:10.136Z,6.90
2018-12-31T10:28:38.486Z,5.90
2018-12-31T10:31:06.847Z,5.10
2018-12-31T10:33:35.242Z,5.27
2018-12-31T10:36:03.551Z,6.80
2018-12-31T10:38:31.851Z,4.50
2018-12-31T10:41:00.208Z,3.40
2018-12-31T10:43:28.626Z,4.53
2018-12-31T10:45:56.912Z,4.20
2018-12-31T10:48:25.280Z,5.30
2018-12-31T10:50:53.670Z,3.77
2018-12-31T10:53:21.939Z,4.17
2018-12-31T10:55:50.286Z,3.70
2018-12-31T10:58:18.556Z,3.50
2018-12-31T11:00:46.835Z,3.53
2018-12-31T11:03:15.200Z,4.37
2018-12-31T11:05:43.575Z,7.63
2018-12-31T11:08:11.845Z,14.30
2018-12-31T11:10:40.128Z,4.27
2018-12-31T11:13:08.479Z,4.30
2018-12-31T11:15:36.786Z,6.50
2018-12-31T11:18:05.071Z,13.30
2018-12-31T11:20:33.352Z,5.10
2018-12-31T11:23:01.668Z,23.73
2018-12-31T11:25:29.954Z,5.23
2018-12-31T11:27:58.231Z,2.83
2018-12-31T11:30:26.505Z,3.33
2018-12-31T11:32:54.855Z,9.10
2018-12-31T11:35:23.220Z,8.40
2018-12-31T11:37:51.575Z,13.83
2018-12-31T11:40:19.894Z,11.60
2018-12-31T11:42:48.163Z,4.10
2018-12-31T11:45:16.497Z,3.83
2018-12-31T11:47:44.793Z,4.03
2018-12-31T11:50:13.083Z,4.50
2018-12-31T11:52:41.395Z,4.50
2018-12-31T11:55:09.852Z,4.83
2018-12-31T11:57:38.204Z,4.40
2018-12-31T12:00:08.714Z,10.10
2018-12-31T12:02:37.094Z,7.57
2018-12-31T12:05:06.077Z,6.00
2018-12-31T12:07:34.359Z,2.93
2018-12-31T12:10:03.402Z,5.97
2018-12-31T12:12:31.711Z,3.67
2018-12-31T12:14:59.973Z,5.43
2018-12-31T12:17:28.337Z,3.13
2018-12-31T12:19:56.698Z,3.27
2018-12-31T12:22:25.056Z,2.97
2018-12-31T12:24:53.395Z,4.40
2018-12-31T12:27:21.673Z,4.90
2018-12-31T12:29:50.032Z,4.80
2018-12-31T12:32:18.388Z,6.10
2018-12-31T12:34:46.729Z,4.00
2018-12-31T12:37:15.092Z,5.57
2018-12-31T12:39:43.476Z,3.10
2018-12-31T12:42:11.847Z,6.97
2018-12-31T12:44:40.118Z,5.13
2018-12-31T12:47:08.486Z,8.33
2018-12-31T12:49:37.228Z,4.47
2018-12-31T12:52:05.572Z,3.33
2018-12-31T12:54:33.937Z,3.77
2018-12-31T12:57:02.220Z,3.07
2018-12-31T12:59:30.567Z,3.97
2018-12-31T13:01:59.559Z,5.23
2018-12-31T13:04:27.914Z,4.13
2018-12-31T13:06:56.258Z,3.47
2018-12-31T13:09:24.626Z,3.23
2018-12-31T13:11:52.924Z,3.20
2018-12-31T13:14:22.928Z,2.97
2018-12-31T13:16:51.273Z,4.70
2018-12-31T13:19:19.674Z,4.50
2018-12-31T13:21:48.024Z,3.20
2018-12-31T13:24:16.389Z,5.30
2018-12-31T13:26:44.749Z,6.00
2018-12-31T13:29:13.103Z,3.70
2018-12-31T13:31:41.455Z,5.20
2018-12-31T13:34:09.743Z,4.67
2018-12-31T13:36:38.148Z,10.97
2018-12-31T13:39:06.504Z,4.47
2018-12-31T13:41:34.880Z,42.63
2018-12-31T13:44:03.286Z,21.40
2018-12-31T13:46:31.575Z,7.33
2018-12-31T13:48:59.921Z,5.27
2018-12-31T13:51:28.305Z,4.60
2018-12-31T13:53:56.643Z,7.73
2018-12-31T13:56:25.079Z,5.10
2018-12-31T13:58:53.526Z,8.83
2018-12-31T14:01:21.883Z,4.30
2018-12-31T14:03:50.234Z,8.03
2018-12-31T14:06:19.182Z,8.87
2018-12-31T14:08:47.538Z,4.80
2018-12-31T14:11:15.904Z,5.07
2018-12-31T14:13:44.258Z,7.63
2018-12-31T14:16:12.620Z,9.23
2018-12-31T14:18:41.386Z,12.13
2018-12-31T14:21:09.775Z,8.93
2018-12-31T14:23:38.120Z,8.87
2018-12-31T14:26:06.492Z,7.00
2018-12-31T14:28:34.999Z,3.93
2018-12-31T14:31:03.921Z,4.67
2018-12-31T14:33:32.257Z,7.43
2018-12-31T14:36:00.622Z,6.37
2018-12-31T14:38:28.931Z,5.97
2018-12-31T14:40:57.282Z,8.00
2018-12-31T14:43:25.638Z,4.90
2018-12-31T14:45:54.066Z,6.73
2018-12-31T14:48:22.448Z,6.27
2018-12-31T14:50:50.888Z,8.27
2018-12-31T14:53:19.252Z,11.13
2018-12-31T14:55:47.645Z,10.60
2018-12-31T14:58:16.019Z,7.23
2018-12-31T15:00:44.375Z,8.67
2018-12-31T15:03:12.718Z,8.57
2018-12-31T15:05:41.101Z,5.93
2018-12-31T15:08:09.455Z,6.90
2018-12-31T15:10:37.894Z,7.13
2018-12-31T15:13:06.281Z,9.10
2018-12-31T15:15:34.705Z,8.80
2018-12-31T15:18:03.144Z,7.47
2018-12-31T15:20:31.610Z,13.90
2018-12-31T15:23:00.274Z,11.63
2018-12-31T15:25:28.724Z,8.23
2018-12-31T15:27:57.089Z,12.37
2018-12-31T15:30:25.432Z,10.93
2018-12-31T15:32:53.796Z,10.10
2018-12-31T15:35:22.182Z,16.13
2018-12-31T15:37:50.451Z,12.33
2018-12-31T15:40:18.765Z,13.20
2018-12-31T15:42:47.125Z,9.50
2018-12-31T15:45:15.504Z,12.77
2018-12-31T15:47:44.028Z,12.13
2018-12-31T15:50:12.819Z,15.73
2018-12-31T15:52:41.565Z,13.03
2018-12-31T15:55:09.919Z,6.97
2018-12-31T15:57:38.326Z,9.43
2018-12-31T16:00:08.439Z,12.43
2018-12-31T16:02:36.790Z,12.10
2018-12-31T16:05:05.585Z,12.87
2018-12-31T16:07:33.974Z,12.30
2018-12-31T16:10:02.327Z,16.10
2018-12-31T16:12:30.677Z,14.37
2018-12-31T16:14:59.368Z,13.93
2018-12-31T16:17:27.742Z,18.23
2018-12-31T16:19:57.149Z,17.53
2018-12-31T16:22:25.505Z,10.20
2018-12-31T16:24:53.857Z,17.03
2018-12-31T16:27:22.727Z,19.30
2018-12-31T16:29:51.085Z,17.77
2018-12-31T16:32:19.453Z,17.37
2018-12-31T16:34:47.835Z,13.60
2018-12-31T16:37:16.220Z,12.40
2018-12-31T16:39:44.566Z,12.80
2018-12-31T16:42:12.850Z,11.03
2018-12-31T16:44:41.220Z,24.80
2018-12-31T16:47:09.649Z,16.37
2018-12-31T16:49:38.045Z,11.87
2018-12-31T16:52:06.395Z,11.27
2018-12-31T16:54:34.992Z,11.30
2018-12-31T16:57:05.170Z,11.17
2018-12-31T16:59:33.335Z,9.77
2018-12-31T17:02:01.710Z,20.10
2018-12-31T17:04:30.063Z,20.93
2018-12-31T17:06:58.971Z,18.07
2018-12-31T17:09:27.300Z,20.70
2018-12-31T17:11:55.640Z,18.87
2018-12-31T17:14:24.062Z,13.17
2018-12-31T17:16:52.412Z,10.00
2018-12-31T17:19:20.693Z,16.87
2018-12-31T17:21:49.175Z,12.43
2018-12-31T17:24:17.554Z,13.73
2018-12-31T17:26:45.912Z,18.47
2018-12-31T17:29:14.269Z,14.43
2018-12-31T17:31:42.613Z,13.50
2018-12-31T17:34:11.361Z,16.87
2018-12-31T17:36:39.720Z,12.40
2018-12-31T17:39:08.380Z,15.20
2018-12-31T17:41:36.764Z,15.00
2018-12-31T17:44:05.116Z,11.73
2018-12-31T17:46:34.283Z,15.90
2018-12-31T17:49:02.631Z,14.77
2018-12-31T17:51:30.991Z,12.40
2018-12-31T17:53:59.359Z,15.13
2018-12-31T17:56:47.125Z,21.07
2018-12-31T17:59:15.447Z,15.73
2018-12-31T18:01:43.865Z,14.30
2018-12-31T18:04:12.210Z,33.93
2018-12-31T18:06:40.494Z,30.60
2018-12-31T18:09:08.911Z,55.33
2018-12-31T18:11:37.267Z,13.97
2018-12-31T18:14:05.642Z,16.13
2018-12-31T18:16:34.013Z,18.10
2018-12-31T18:19:02.382Z,15.80
2018-12-31T18:21:30.698Z,11.57
2018-12-31T18:23:58.984Z,11.93
2018-12-31T18:26:27.388Z,9.40
2018-12-31T18:28:55.767Z,11.37
2018-12-31T18:31:24.065Z,12.90
2018-12-31T18:33:52.434Z,12.97
2018-12-31T18:36:21.257Z,14.03
2018-12-31T18:38:49.887Z,7.60
2018-12-31T18:41:18.221Z,9.87
2018-12-31T18:43:46.581Z,8.43
2018-12-31T18:46:14.959Z,9.97
2018-12-31T18:48:43.722Z,11.10
2018-12-31T18:51:12.087Z,16.47
2018-12-31T18:53:40.439Z,16.23
2018-12-31T18:56:08.786Z,18.63
2018-12-31T18:58:37.165Z,17.93
2018-12-31T19:01:05.457Z,11.20
2018-12-31T19:03:33.827Z,19.70
2018-12-31T19:06:02.207Z,61.13
2018-12-31T19:08:30.572Z,22.40
2018-12-31T19:10:58.943Z,89.63
2018-12-31T19:13:27.382Z,37.37
2018-12-31T19:15:56.144Z,24.73
2018-12-31T19:18:24.587Z,26.33
2018-12-31T19:20:52.930Z,41.17
2018-12-31T19:23:21.329Z,39.77
2018-12-31T19:25:49.701Z,42.37
2018-12-31T19:28:18.031Z,51.50
2018-12-31T19:30:46.398Z,50.77
2018-12-31T19:33:14.809Z,47.67
2018-12-31T19:35:43.130Z,41.83
2018-12-31T19:38:11.461Z,31.13
2018-12-31T19:40:39.744Z,30.70
2018-12-31T19:43:08.200Z,34.93
2018-12-31T19:45:36.507Z,34.97
2018-12-31T19:48:04.876Z,35.30
2018-12-31T19:50:33.226Z,33.33
2018-12-31T19:53:01.579Z,27.43
2018-12-31T19:55:29.957Z,24.30
2018-12-31T19:57:58.326Z,27.97
2018-12-31T20:00:26.679Z,26.53
2018-12-31T20:02:55.056Z,25.63
2018-12-31T20:05:23.417Z,22.93
2018-12-31T20:07:51.854Z,22.67
2018-12-31T20:10:20.197Z,32.93
2018-12-31T20:12:48.571Z,35.67
2018-12-31T20:15:16.939Z,38.67
2018-12-31T20:17:45.231Z,36.23
2018-12-31T20:20:13.575Z,34.97
2018-12-31T20:22:42.506Z,34.60
2018-12-31T20:25:10.849Z,35.63
2018-12-31T20:27:39.203Z,35.00
2018-12-31T20:30:09.236Z,41.93
2018-12-31T20:32:37.582Z,50.73
2018-12-31T20:35:05.860Z,46.87
2018-12-31T20:37:34.440Z,43.43
2018-12-31T20:40:02.790Z,44.77
2018-12-31T20:42:31.142Z,47.03
2018-12-31T20:44:59.529Z,40.30
2018-12-31T20:47:27.871Z,36.77
2018-12-31T20:49:56.224Z,33.40
2018-12-31T20:52:24.603Z,28.87
2018-12-31T20:54:52.960Z,30.17
2018-12-31T20:57:21.320Z,25.53
2018-12-31T20:59:49.703Z,24.00
2018-12-31T21:02:18.067Z,20.37
2018-12-31T21:04:46.426Z,16.47
2018-12-31T21:07:14.776Z,18.67
2018-12-31T21:09:43.145Z,16.20
2018-12-31T21:12:11.498Z,20.57
2018-12-31T21:14:39.882Z,17.20
2018-12-31T21:17:08.234Z,21.70
2018-12-31T21:19:36.595Z,18.70
2018-12-31T21:22:04.966Z,17.53
2018-12-31T21:24:33.321Z,21.80
2018-12-31T21:27:01.683Z,23.87
2018-12-31T21:29:30.040Z,31.50
2018-12-31T21:31:58.386Z,34.20
2018-12-31T21:34:26.820Z,37.83
2018-12-31T21:36:55.180Z,42.37
2018-12-31T21:39:23.560Z,33.27
2018-12-31T21:41:51.918Z,27.47
2018-12-31T21:44:20.299Z,31.27
2018-12-31T21:46:49.126Z,27.20
2018-12-31T21:49:17.483Z,34.13
2018-12-31T21:51:45.835Z,30.70
2018-12-31T21:54:14.186Z,26.63
2018-12-31T21:56:42.467Z,28.20
2018-12-31T21:59:10.824Z,24.70
2018-12-31T22:01:39.191Z,28.17
2018-12-31T22:04:07.578Z,26.67
2018-12-31T22:06:35.922Z,29.17
2018-12-31T22:09:06.118Z,28.23
2018-12-31T22:11:34.422Z,24.90
2018-12-31T22:14:02.714Z,29.07
2018-12-31T22:16:31.110Z,27.47
2018-12-31T22:18:59.468Z,29.37
2018-12-31T22:21:29.254Z,28.00
2018-12-31T22:23:57.702Z,28.40
2018-12-31T22:26:26.562Z,29.33
2018-12-31T22:28:54.916Z,31.07
2018-12-31T22:31:23.229Z,26.70
2018-12-31T22:33:51.572Z,30.30
2018-12-31T22:36:19.927Z,27.67
2018-12-31T22:38:48.269Z,31.30
2018-12-31T22:41:16.550Z,30.13
2018-12-31T22:43:44.901Z,32.03
2018-12-31T22:46:13.291Z,34.20
2018-12-31T22:48:44.568Z,30.23
2018-12-31T22:51:12.956Z,28.57
2018-12-31T22:53:41.318Z,34.00
2018-12-31T22:56:09.667Z,31.43
2018-12-31T22:58:38.028Z,37.47
2018-12-31T23:01:06.403Z,30.37
2018-12-31T23:03:34.750Z,170.47
2018-12-31T23:06:03.405Z,44.67
2018-12-31T23:08:31.799Z,40.37
2018-12-31T23:11:00.146Z,47.00
2018-12-31T23:13:28.839Z,57.90
2018-12-31T23:15:58.495Z,56.77
2018-12-31T23:18:27.260Z,55.53
2018-12-31T23:20:55.676Z,57.57
2018-12-31T23:23:24.029Z,51.53
2018-12-31T23:25:52.397Z,49.60
2018-12-31T23:28:20.784Z,48.57
2018-12-31T23:30:49.140Z,45.90
2018-12-31T23:33:17.523Z,48.73
2018-12-31T23:35:47.539Z,43.97
2018-12-31T23:38:15.886Z,41.93
2018-12-31T23:40:45.897Z,41.53
2018-12-31T23:43:14.224Z,41.80
2018-12-31T23:45:42.570Z,41.80
2018-12-31T23:48:10.851Z,44.77
2018-12-31T23:50:39.218Z,39.03
2018-12-31T23:53:07.603Z,40.20
2018-12-31T23:55:35.994Z,39.67
2018-12-31T23:58:04.801Z,44.53
